Time;durP1;ratioP1;P1;durP2;ratioP2;P2;SDS_P1;SDS_P2;PMS_P1;PMS_P2;Temp;Humidity;BMP_temperature;BMP_pressure;BME280_temperature;BME280_humidity;BME280_pressure;Samples;Min_cycle;Max_cycle;Signal;HPM_P1;HPM_P2
2023/07/12 00:00:25;;;;;;;12.10;10.73;;;;;;;-141.97;46.27;47349.94;5030995;28;20171;-91
2023/07/12 00:02:50;;;;;;;12.60;10.13;;;;;;;-141.97;46.24;47323.03;5015388;28;20286;-90
2023/07/12 00:05:17;;;;;;;13.50;10.50;;;;;;;-141.97;46.35;47373.00;5019705;28;20222;-90
2023/07/12 00:07:45;;;;;;;12.70;10.27;;;;;;;-141.97;46.83;47392.22;5020082;28;20237;-86
2023/07/12 00:10:22;;;;;;;12.35;10.50;;;;;;;-141.97;47.48;47622.88;5029522;28;20175;-87
2023/07/12 00:12:48;;;;;;;16.17;11.45;;;;;;;-141.97;48.04;47323.03;5014207;28;20245;-87
2023/07/12 00:15:26;;;;;;;12.87;10.80;;;;;;;-141.97;48.27;47371.09;5013207;28;20171;-87
2023/07/12 00:17:53;;;;;;;12.27;10.33;;;;;;;-141.97;48.02;47386.47;5013711;28;20167;-88
2023/07/12 00:20:28;;;;;;;13.73;11.20;;;;;;;-141.97;48.06;47382.63;5020274;28;20165;-88
2023/07/12 00:22:55;;;;;;;12.77;10.97;;;;;;;-141.97;48.44;47278.84;5033400;28;20186;-88
2023/07/12 00:25:22;;;;;;;14.53;10.70;;;;;;;-141.97;48.46;47388.38;5033310;28;20173;-87
2023/07/12 00:27:48;;;;;;;15.27;11.10;;;;;;;-141.97;48.41;47419.13;5024143;28;20667;-89
2023/07/12 00:30:20;;;;;;;15.03;10.83;;;;;;;-141.97;48.60;47369.16;5003610;28;20664;-89
2023/07/12 00:32:50;;;;;;;14.17;11.47;;;;;;;-141.97;48.59;47326.88;5013660;28;20312;-90
2023/07/12 00:35:19;;;;;;;14.17;11.13;;;;;;;-141.97;48.58;47373.00;5031678;28;20170;-89
2023/07/12 00:37:45;;;;;;;13.50;10.80;;;;;;;-141.97;48.37;47307.66;5016826;28;20181;-90
2023/07/12 00:40:38;;;;;;;13.93;11.00;;;;;;;-141.97;48.50;47392.22;5014135;28;20167;-91
2023/07/12 00:43:15;;;;;;;13.43;10.97;;;;;;;-141.97;47.88;47311.50;5034341;28;20194;-89
2023/07/12 00:45:43;;;;;;;13.33;11.27;;;;;;;-141.97;47.98;47503.69;5031689;28;20253;-90
2023/07/12 00:48:13;;;;;;;12.50;10.77;;;;;;;-141.97;47.51;47282.69;5012406;28;20218;-89
2023/07/12 00:50:40;;;;;;;12.70;10.60;;;;;;;-141.97;47.73;47353.78;5012196;28;20171;-89
2023/07/12 00:53:12;;;;;;;13.37;10.97;;;;;;;-141.97;47.56;47353.78;5012358;28;20190;-88
2023/07/12 00:56:04;;;;;;;15.40;10.67;;;;;;;-141.97;47.82;47415.28;5013534;28;20195;-88
2023/07/12 00:58:37;;;;;;;15.20;11.13;;;;;;;-141.97;48.27;47449.88;5013011;28;20185;-88
2023/07/12 01:01:05;;;;;;;13.83;10.87;;;;;;;-141.97;49.10;47196.19;5013284;28;20190;-88
2023/07/12 01:03:35;;;;;;;13.20;11.27;;;;;;;-141.97;49.21;47384.53;5013275;28;20191;-89
2023/07/12 01:06:01;;;;;;;12.87;10.83;;;;;;;-141.97;48.96;47369.16;5016232;28;20197;-90
2023/07/12 01:08:28;;;;;;;14.53;10.50;;;;;;;-141.97;49.39;47192.34;5012822;28;20175;-88
2023/07/12 01:10:56;;;;;;;13.67;11.20;;;;;;;-141.97;49.42;47246.16;5033917;28;20185;-89
2023/07/12 01:13:23;;;;;;;13.20;11.00;;;;;;;-141.97;49.65;47401.84;5013984;28;20182;-89
2023/07/12 01:15:49;;;;;;;13.10;10.80;;;;;;;-141.97;49.77;47163.53;5014423;28;20162;-90
2023/07/12 01:18:14;;;;;;;15.93;10.97;;;;;;;-141.97;49.88;47359.56;5011215;28;20664;-89
2023/07/12 01:20:42;;;;;;;14.73;11.33;;;;;;;-141.97;49.83;47384.53;5013061;28;20193;-90
2023/07/12 01:23:07;;;;;;;12.20;10.67;;;;;;;-141.97;49.22;47405.69;5033233;28;20221;-90
2023/07/12 01:25:37;;;;;;;14.27;11.13;;;;;;;-141.97;49.12;47640.16;5034114;28;20651;-89
2023/07/12 01:28:04;;;;;;;13.90;11.03;;;;;;;-141.97;49.73;47396.06;5014842;28;20186;-90
2023/07/12 01:30:30;;;;;;;15.10;11.23;;;;;;;-141.97;49.92;47275.00;5002839;28;20269;-90
2023/07/12 01:32:55;;;;;;;12.50;11.20;;;;;;;-141.97;49.86;47382.63;5027674;28;20159;-90
2023/07/12 01:35:21;;;;;;;14.37;11.30;;;;;;;-141.97;50.04;47380.69;5011080;28;20177;-90
2023/07/12 01:37:46;;;;;;;13.67;11.20;;;;;;;-141.97;49.77;47405.69;5011722;28;20175;-89
2023/07/12 01:40:12;;;;;;;14.27;11.50;;;;;;;-141.97;49.85;47444.13;5027368;28;20646;-91
2023/07/12 01:42:38;;;;;;;13.97;10.77;;;;;;;-141.97;50.00;47670.91;5011827;28;20209;-91
2023/07/12 01:45:03;;;;;;;12.33;10.93;;;;;;;-141.97;49.83;47288.44;5011822;28;20177;-90
2023/07/12 01:47:30;;;;;;;14.07;11.23;;;;;;;-141.97;49.74;47184.66;5012186;28;20218;-88
2023/07/12 01:49:55;;;;;;;14.27;11.33;;;;;;;-141.97;49.63;47401.84;5012458;28;20185;-88
2023/07/12 01:52:21;;;;;;;13.17;11.43;;;;;;;-141.97;49.77;47386.47;5012357;28;20171;-87
2023/07/12 01:54:46;;;;;;;16.03;11.80;;;;;;;-141.97;49.63;47326.88;5013826;28;20277;-87
2023/07/12 01:57:12;;;;;;;14.43;11.67;;;;;;;-141.97;49.78;47422.97;5012758;28;20523;-88
2023/07/12 01:59:37;;;;;;;16.07;11.67;;;;;;;-141.97;49.83;47438.34;5010790;28;20181;-89
2023/07/12 02:02:03;;;;;;;16.53;11.77;;;;;;;-141.97;50.10;47388.38;5012110;28;20284;-89
2023/07/12 02:04:28;;;;;;;17.87;12.80;;;;;;;-141.97;50.70;47538.28;5012779;28;20163;-89
2023/07/12 02:06:54;;;;;;;15.90;12.63;;;;;;;-141.97;51.26;47463.34;5011264;28;20258;-88
2023/07/12 02:09:19;;;;;;;16.33;13.03;;;;;;;-141.97;51.62;47309.59;5012846;28;20171;-89
2023/07/12 02:11:44;;;;;;;17.53;13.00;;;;;;;-141.97;51.71;47384.53;5012592;28;20181;-87
2023/07/12 02:14:10;;;;;;;16.07;13.20;;;;;;;-141.97;51.77;47407.59;5012484;28;20155;-89
2023/07/12 02:16:35;;;;;;;17.40;13.30;;;;;;;-141.97;51.94;47611.34;5012171;28;20643;-89
2023/07/12 02:19:00;;;;;;;19.87;13.17;;;;;;;-141.97;52.18;47292.28;5015761;28;20297;-89
2023/07/12 02:21:26;;;;;;;18.30;12.77;;;;;;;-141.97;52.17;47342.25;5029757;28;20184;-89
2023/07/12 02:23:54;;;;;;;19.37;12.50;;;;;;;-141.97;52.00;47228.88;5035973;28;20205;-89
2023/07/12 02:26:20;;;;;;;17.43;12.43;;;;;;;-141.97;51.91;47349.94;5035515;28;20166;-88
2023/07/12 02:28:45;;;;;;;17.10;12.03;;;;;;;-141.97;51.14;47280.75;5021964;28;20547;-89
2023/07/12 02:31:24;;;;;;;17.13;12.10;;;;;;;-141.97;50.37;47192.34;5021944;28;20226;-88
2023/07/12 02:33:50;;;;;;;15.00;11.30;;;;;;;-141.97;50.19;47417.22;5016225;28;20171;-88
2023/07/12 02:36:17;;;;;;;14.30;11.07;;;;;;;-141.97;50.02;47411.44;5015372;28;20543;-89
2023/07/12 02:38:42;;;;;;;15.13;11.20;;;;;;;-141.97;49.90;47421.06;5015758;28;20174;-89
2023/07/12 02:41:08;;;;;;;14.47;11.07;;;;;;;-141.97;49.86;47251.94;5015545;28;20175;-88
2023/07/12 02:43:34;;;;;;;14.60;11.20;;;;;;;-141.97;49.89;47405.69;5015666;28;20289;-88
2023/07/12 02:46:00;;;;;;;17.43;11.47;;;;;;;-141.97;49.99;47407.59;5015411;28;20630;-88
2023/07/12 02:48:25;;;;;;;14.47;10.57;;;;;;;-141.97;50.17;47436.44;5014662;28;20230;-88
2023/07/12 02:50:51;;;;;;;16.67;11.40;;;;;;;-141.97;50.29;47601.72;5015444;28;20170;-89
2023/07/12 02:53:18;;;;;;;14.93;11.17;;;;;;;-141.97;50.40;47303.81;5014042;28;20175;-89
2023/07/12 02:55:47;;;;;;;14.53;11.30;;;;;;;-141.97;50.29;47386.47;5015556;28;20182;-91
2023/07/12 02:58:13;;;;;;;14.03;11.33;;;;;;;-141.97;50.51;47371.09;5015289;28;20757;-91
2023/07/12 03:00:38;;;;;;;13.83;10.87;;;;;;;-141.97;50.50;47428.75;5014069;28;20182;-88
2023/07/12 03:03:03;;;;;;;15.27;11.33;;;;;;;-141.97;50.17;47338.41;5015856;28;20258;-88
2023/07/12 03:05:33;;;;;;;14.57;11.80;;;;;;;-141.97;50.32;47403.75;5014973;28;20170;-88
2023/07/12 03:07:58;;;;;;;16.07;11.67;;;;;;;-141.97;50.27;47415.28;5013131;28;20198;-87
2023/07/12 03:10:24;;;;;;;18.73;11.27;;;;;;;-141.97;50.00;47228.88;5022635;28;20245;-88
2023/07/12 03:12:49;;;;;;;14.93;11.40;;;;;;;-141.97;50.58;47572.91;5015633;28;20167;-90
2023/07/12 03:15:15;;;;;;;15.00;11.37;;;;;;;-141.97;50.81;47171.22;5014315;28;20258;-91
2023/07/12 03:17:40;;;;;;;17.30;11.43;;;;;;;-141.97;51.33;47405.69;5017490;28;20627;-91
2023/07/12 03:20:06;;;;;;;15.37;11.43;;;;;;;-141.97;51.47;47328.81;5017025;28;20171;-89
2023/07/12 03:22:31;;;;;;;18.43;12.10;;;;;;;-141.97;51.30;47157.75;5016006;28;20638;-89
2023/07/12 03:24:57;;;;;;;14.80;11.63;;;;;;;-141.97;51.13;47246.16;5032856;28;20183;-89
2023/07/12 03:27:22;;;;;;;15.10;11.27;;;;;;;-141.97;50.91;47569.06;5013830;28;20673;-88
2023/07/12 03:29:47;;;;;;;13.97;11.40;;;;;;;-141.97;51.12;47419.13;5003026;28;20234;-88
2023/07/12 03:32:13;;;;;;;18.20;11.73;;;;;;;-141.97;51.21;47430.66;5015395;28;20260;-89
2023/07/12 03:34:39;;;;;;;17.83;11.87;;;;;;;-141.97;50.98;47144.31;5015035;28;20175;-88
2023/07/12 03:37:04;;;;;;;15.17;11.40;;;;;;;-141.97;50.79;47419.13;5030974;28;20239;-87
2023/07/12 03:39:29;;;;;;;18.47;11.30;;;;;;;-141.97;50.78;47453.72;5025346;28;20194;-90
2023/07/12 03:41:55;;;;;;;15.73;11.83;;;;;;;-141.97;50.42;47365.31;5014866;28;20202;-90
2023/07/12 03:44:20;;;;;;;21.47;12.50;;;;;;;-141.97;50.25;47421.06;5029913;28;20174;-88
2023/07/12 03:46:46;;;;;;;18.40;12.27;;;;;;;-141.97;50.50;47534.44;5014991;28;20393;-88
2023/07/12 03:49:11;;;;;;;15.50;12.23;;;;;;;-141.97;49.97;47436.44;5013740;28;20228;-88
2023/07/12 03:51:36;;;;;;;21.03;12.40;;;;;;;-141.97;49.94;47415.28;5014204;28;20179;-88
2023/07/12 03:54:02;;;;;;;15.93;11.20;;;;;;;-141.97;49.98;47584.44;5014764;28;20217;-87
2023/07/12 03:56:27;;;;;;;19.50;12.30;;;;;;;-141.97;50.70;47422.97;5019986;28;20158;-85
2023/07/12 03:58:53;;;;;;;15.97;12.33;;;;;;;-141.97;50.29;47394.16;5032844;28;20179;-89
2023/07/12 04:01:18;;;;;;;15.90;11.50;;;;;;;-141.97;50.54;47426.81;5019457;28;20175;-88
2023/07/12 04:03:44;;;;;;;16.03;12.10;;;;;;;-141.97;50.86;47463.34;5014683;28;20281;-88
2023/07/12 04:06:09;;;;;;;17.57;12.00;;;;;;;-141.97;51.27;47399.91;5014473;28;20177;-89
2023/07/12 04:08:36;;;;;;;19.13;12.53;;;;;;;-141.97;50.56;47538.28;5012864;28;20612;-89
2023/07/12 04:11:02;;;;;;;17.43;12.43;;;;;;;-141.97;50.58;47549.84;5014327;28;20170;-90
2023/07/12 04:13:28;;;;;;;16.97;11.93;;;;;;;-141.97;50.96;47586.34;5017698;28;20554;-89
2023/07/12 04:15:58;;;;;;;15.97;11.80;;;;;;;-141.97;50.82;47538.28;5016088;28;20604;-88
2023/07/12 04:18:24;;;;;;;22.57;12.13;;;;;;;-141.97;50.63;47419.13;5014986;28;20175;-87
2023/07/12 04:20:51;;;;;;;17.17;11.97;;;;;;;-141.97;50.45;47323.03;5031409;28;20174;-88
2023/07/12 04:23:17;;;;;;;16.87;12.47;;;;;;;-141.97;50.38;47407.59;5027638;28;20210;-87
2023/07/12 04:25:42;;;;;;;19.53;12.60;;;;;;;-141.97;50.31;47376.84;5004106;28;20191;-89
2023/07/12 04:28:09;;;;;;;19.37;12.83;;;;;;;-141.97;50.23;47346.09;5002830;28;20242;-89
2023/07/12 04:30:37;;;;;;;16.67;11.80;;;;;;;-141.97;49.93;47386.47;5011680;28;20238;-89
2023/07/12 04:33:03;;;;;;;18.00;12.23;;;;;;;-141.97;49.77;47670.91;4998410;28;20563;-88
2023/07/12 04:35:29;;;;;;;20.63;12.40;;;;;;;-141.97;50.06;47349.94;5014454;28;20178;-89
2023/07/12 04:37:54;;;;;;;19.03;12.87;;;;;;;-141.97;49.51;47430.66;5014919;28;20179;-88
2023/07/12 04:40:20;;;;;;;24.30;12.23;;;;;;;-141.97;48.90;47661.31;5014412;28;20201;-88
2023/07/12 04:42:46;;;;;;;23.27;12.73;;;;;;;-141.97;48.59;47369.16;5014809;28;20663;-88
2023/07/12 04:45:13;;;;;;;19.53;11.93;;;;;;;-141.97;48.28;47384.53;5013200;28;20206;-81
2023/07/12 04:47:39;;;;;;;19.90;12.43;;;;;;;-141.97;48.50;47405.69;5011430;28;20718;-81
2023/07/12 04:50:07;;;;;;;16.57;11.87;;;;;;;-141.97;47.91;47411.44;5012105;28;20190;-79
2023/07/12 04:52:33;;;;;;;18.27;11.93;;;;;;;-141.97;47.86;47321.13;5012265;28;20178;-80
2023/07/12 04:55:01;;;;;;;14.53;11.30;;;;;;;-141.97;48.05;47422.97;5012507;28;20169;-80
2023/07/12 04:57:27;;;;;;;17.67;12.03;;;;;;;-141.97;47.39;47396.06;5014078;28;20179;-81
2023/07/12 04:59:53;;;;;;;26.03;12.20;;;;;;;-141.97;47.38;47597.88;5014670;28;20181;-79
2023/07/12 05:02:18;;;;;;;18.27;11.77;;;;;;;-141.97;47.75;47411.44;5020652;28;20230;-82
2023/07/12 05:04:44;;;;;;;16.23;12.07;;;;;;;-141.97;47.70;47338.41;5016622;28;20170;-82
2023/07/12 05:07:09;;;;;;;17.50;11.97;;;;;;;-141.97;47.33;47490.25;5020664;28;20558;-80
2023/07/12 05:09:36;;;;;;;20.57;11.57;;;;;;;-141.97;46.88;47378.78;5012110;28;20173;-81
2023/07/12 05:12:01;;;;;;;18.53;11.70;;;;;;;-141.97;46.82;47371.09;5012375;28;20589;-81
2023/07/12 05:14:27;;;;;;;18.60;11.67;;;;;;;-141.97;46.10;47411.44;5013379;28;20191;-81
2023/07/12 05:16:52;;;;;;;14.50;11.70;;;;;;;-141.97;45.69;47371.09;5009499;28;20261;-81
2023/07/12 05:19:18;;;;;;;15.38;11.32;;;;;;;-141.97;44.96;47369.16;5006303;28;20180;-82
2023/07/12 05:21:43;;;;;;;15.57;10.82;;;;;;;-141.97;44.42;47401.84;5008888;28;20283;-80
2023/07/12 05:24:09;;;;;;;17.05;11.13;;;;;;;-141.97;44.47;47371.09;5006958;28;20206;-81
2023/07/12 05:26:35;;;;;;;15.98;11.52;;;;;;;-141.97;43.75;47276.91;5012785;28;20185;-82
2023/07/12 05:29:00;;;;;;;16.75;11.40;;;;;;;-141.97;43.19;47371.09;5008105;28;20627;-82
2023/07/12 05:31:26;;;;;;;14.63;11.48;;;;;;;-141.97;42.81;47330.72;4996272;28;20239;-81
2023/07/12 05:33:52;;;;;;;16.25;11.18;;;;;;;-141.97;42.60;47338.41;5006472;28;20400;-81
2023/07/12 05:36:17;;;;;;;16.60;10.98;;;;;;;-141.97;42.44;47346.09;5007348;28;20178;-82
2023/07/12 05:38:43;;;;;;;14.00;11.00;;;;;;;-141.97;42.34;47315.34;5005775;28;20204;-81
2023/07/12 05:41:09;;;;;;;18.17;11.45;;;;;;;-141.97;42.21;47346.09;5007416;28;20176;-81
2023/07/12 05:43:34;;;;;;;16.75;11.55;;;;;;;-141.97;41.61;47307.66;5006561;28;20207;-82
2023/07/12 05:46:00;;;;;;;16.48;11.35;;;;;;;-141.97;42.18;47369.16;5005895;28;20253;-81
2023/07/12 05:48:26;;;;;;;21.17;11.55;;;;;;;-141.97;42.03;47321.13;5013889;28;20780;-81
2023/07/12 05:50:56;;;;;;;14.68;10.98;;;;;;;-141.97;41.94;47355.72;5003595;28;20190;-80
2023/07/12 05:53:21;;;;;;;24.58;12.57;;;;;;;-141.97;40.83;47319.19;5006265;28;20188;-81
2023/07/12 05:55:46;;;;;;;16.63;10.77;;;;;;;-141.97;39.45;47334.56;5012242;28;20300;-82
2023/07/12 05:58:12;;;;;;;16.95;11.45;;;;;;;-141.97;40.35;47303.81;5025238;28;20608;-81
2023/07/12 06:00:39;;;;;;;16.85;11.20;;;;;;;-141.97;39.69;47288.44;5017585;28;20198;-79
2023/07/12 06:03:05;;;;;;;18.38;11.13;;;;;;;-141.97;39.71;47332.66;5020458;28;20283;-81
2023/07/12 06:05:31;;;;;;;14.93;10.88;;;;;;;-141.97;39.10;47355.72;5014887;28;20289;-81
2023/07/12 06:07:57;;;;;;;19.10;11.05;;;;;;;-141.97;38.71;47298.06;5012714;28;20185;-81
2023/07/12 06:10:22;;;;;;;14.27;10.55;;;;;;;-141.97;37.32;47305.75;5025931;28;20187;-80
2023/07/12 06:12:48;;;;;;;16.02;10.75;;;;;;;-141.97;37.77;47311.50;5009251;28;20284;-80
2023/07/12 06:15:13;;;;;;;18.80;11.07;;;;;;;-141.97;38.19;47303.81;5009674;28;20190;-81
2023/07/12 06:17:38;;;;;;;15.50;11.77;;;;;;;-141.97;37.54;47307.66;5011047;28;20638;-81
2023/07/12 06:20:04;;;;;;;17.23;11.23;;;;;;;-141.97;37.64;47271.16;5001072;28;20181;-81
2023/07/12 06:22:30;;;;;;;16.83;11.20;;;;;;;-141.97;37.67;47278.84;5004722;28;20212;-81
2023/07/12 06:24:56;;;;;;;15.57;10.95;;;;;;;-141.97;37.51;47332.66;5004816;28;20273;-81
2023/07/12 06:27:21;;;;;;;14.27;10.75;;;;;;;-141.97;36.76;47273.06;5024338;28;20176;-82
2023/07/12 06:29:47;;;;;;;19.88;9.73;;;;;;;-141.97;36.82;47313.44;5024703;28;20192;-81
2023/07/12 06:32:13;;;;;;;16.60;10.70;;;;;;;-141.97;36.41;47303.81;4997747;28;20228;-81
2023/07/12 06:34:39;;;;;;;13.82;10.07;;;;;;;-141.97;36.29;47261.53;5004479;28;20189;-81
2023/07/12 06:37:05;;;;;;;15.23;9.98;;;;;;;-141.97;35.95;47307.66;5004937;28;20262;-80
2023/07/12 06:39:30;;;;;;;14.25;10.35;;;;;;;-141.97;35.95;47311.50;5002110;28;20182;-80
2023/07/12 06:41:56;;;;;;;14.07;10.15;;;;;;;-141.97;35.90;47490.25;5002044;28;20213;-81
2023/07/12 06:44:21;;;;;;;13.55;10.02;;;;;;;-141.97;35.88;47286.53;5005178;28;20276;-82
2023/07/12 06:46:47;;;;;;;13.63;9.52;;;;;;;-141.97;36.07;47330.72;5011106;28;20182;-82
2023/07/12 06:49:15;;;;;;;17.65;9.60;;;;;;;-141.97;35.78;47334.56;5010180;28;20604;-82
2023/07/12 06:51:46;;;;;;;17.67;10.02;;;;;;;-141.97;35.66;47292.28;5010261;28;20657;-81
2023/07/12 06:54:13;;;;;;;12.55;10.20;;;;;;;-141.97;35.86;47369.16;5003067;28;20196;-82
2023/07/12 06:56:39;;;;;;;12.45;9.40;;;;;;;-141.97;35.78;47269.22;5020388;28;20193;-82
2023/07/12 06:59:04;;;;;;;18.60;9.85;;;;;;;-141.97;35.76;47225.03;5014885;28;20220;-81
2023/07/12 07:01:30;;;;;;;13.50;9.65;;;;;;;-141.97;35.28;47250.00;5026173;28;20237;-82
2023/07/12 07:03:55;;;;;;;18.27;9.88;;;;;;;-141.97;35.07;47292.28;5023485;28;20768;-82
2023/07/12 07:06:21;;;;;;;13.93;9.50;;;;;;;-141.97;34.04;47284.59;5008120;28;20197;-81
2023/07/12 07:08:47;;;;;;;12.45;8.88;;;;;;;-141.97;33.96;47265.38;5007829;28;20269;-81
2023/07/12 07:11:12;;;;;;;12.63;9.25;;;;;;;-141.97;33.88;47542.16;5008192;28;20651;-81
2023/07/12 07:13:38;;;;;;;13.18;9.30;;;;;;;-141.97;33.81;47221.19;5008099;28;20593;-80
2023/07/12 07:16:03;;;;;;;12.18;9.85;;;;;;;-141.97;33.55;47232.72;5010287;28;20182;-81
2023/07/12 07:18:29;;;;;;;13.13;8.23;;;;;;;-141.97;33.64;47250.00;5012053;28;20621;-81
2023/07/12 07:20:54;;;;;;;11.52;8.95;;;;;;;-141.97;33.58;47265.38;5015798;28;20219;-82
2023/07/12 07:23:20;;;;;;;12.63;8.80;;;;;;;-141.97;32.65;47242.31;5015494;28;20205;-82
2023/07/12 07:25:46;;;;;;;14.10;9.43;;;;;;;-141.97;32.33;47257.69;5016481;28;20174;-80
2023/07/12 07:28:12;;;;;;;12.93;8.63;;;;;;;-141.97;31.99;47251.94;5016069;28;20635;-82
2023/07/12 07:30:37;;;;;;;11.35;8.82;;;;;;;-141.97;32.08;47255.78;5016571;28;20242;-82
2023/07/12 07:33:02;;;;;;;12.07;8.50;;;;;;;-141.97;31.89;47209.66;5016602;28;20167;-82
2023/07/12 07:35:28;;;;;;;11.10;8.70;;;;;;;-141.97;32.33;47244.25;5005311;28;20241;-83
2023/07/12 07:37:53;;;;;;;10.20;8.30;;;;;;;-141.97;32.43;47267.31;5018383;28;20187;-83
2023/07/12 07:40:19;;;;;;;12.30;8.02;;;;;;;-141.97;32.50;47248.09;5012929;28;20663;-82
2023/07/12 07:42:45;;;;;;;10.90;9.20;;;;;;;-141.97;32.95;47221.19;5018322;28;20231;-81
2023/07/12 07:45:12;;;;;;;12.45;9.30;;;;;;;-141.97;32.38;47246.16;5018674;28;20189;-80
2023/07/12 07:47:38;;;;;;;13.45;8.80;;;;;;;-141.97;32.85;47169.28;5028572;28;20221;-83
2023/07/12 07:50:06;;;;;;;13.13;8.88;;;;;;;-141.97;32.18;47194.28;5028407;28;20272;-83
2023/07/12 07:52:31;;;;;;;13.70;9.50;;;;;;;-141.97;31.74;47196.19;5002696;28;20293;-79
2023/07/12 07:54:57;;;;;;;13.25;9.05;;;;;;;-141.97;31.18;47234.63;5007376;28;20269;-80
2023/07/12 07:57:23;;;;;;;11.75;8.85;;;;;;;-141.97;31.30;47196.19;5017789;28;20182;-79
2023/07/12 07:59:48;;;;;;;13.10;9.10;;;;;;;-141.97;31.05;47200.03;5037532;28;20249;-79
2023/07/12 08:02:14;;;;;;;9.05;8.10;;;;;;;-141.97;31.61;47186.59;5018217;28;20201;-81
2023/07/12 08:04:39;;;;;;;11.32;8.57;;;;;;;-141.97;31.56;47246.16;5006788;28;20262;-81
2023/07/12 08:07:06;;;;;;;11.55;8.45;;;;;;;-141.97;32.12;47201.97;5007877;28;20553;-82
2023/07/12 08:09:34;;;;;;;13.15;8.70;;;;;;;-141.97;31.50;47253.84;5007432;28;20575;-80
2023/07/12 08:12:00;;;;;;;13.52;8.57;;;;;;;-141.97;31.36;47188.50;5025309;28;20646;-81
2023/07/12 08:14:26;;;;;;;15.15;8.85;;;;;;;-141.97;31.14;47194.28;5026115;28;20221;-80
2023/07/12 08:16:52;;;;;;;11.25;8.85;;;;;;;-141.97;30.72;47215.41;5016160;28;20190;-81
2023/07/12 08:19:17;;;;;;;13.23;8.73;;;;;;;-141.97;30.37;47169.28;5007146;28;21088;-80
2023/07/12 08:21:43;;;;;;;14.93;9.13;;;;;;;-141.97;30.29;47188.50;5008903;28;20236;-81
2023/07/12 08:24:09;;;;;;;11.95;9.00;;;;;;;-141.97;31.19;47192.34;5006384;28;20970;-81
2023/07/12 08:26:34;;;;;;;9.57;8.57;;;;;;;-141.97;31.43;47215.41;5007056;28;20186;-80
2023/07/12 08:29:00;;;;;;;10.40;9.02;;;;;;;-141.97;31.59;47215.41;5006670;28;20213;-80
2023/07/12 08:31:25;;;;;;;10.43;8.35;;;;;;;-141.97;31.00;47186.59;5033378;28;20190;-80
2023/07/12 08:33:51;;;;;;;11.07;8.57;;;;;;;-141.97;30.76;47215.41;5011543;28;20194;-80
2023/07/12 08:36:17;;;;;;;12.85;7.97;;;;;;;-141.97;31.20;47198.09;4999195;28;20226;-80
2023/07/12 09:40:00;;;;;;;14.70;8.80;;;;;;;-141.97;30.32;47136.63;5128509;27;20546;-78
2023/07/12 09:42:28;;;;;;;11.10;8.70;;;;;;;-141.97;29.54;47150.06;5128575;27;20236;-77
2023/07/12 10:03:17;;;;;;;9.98;8.48;;;;;;;-141.97;29.05;47142.38;5130851;27;20542;-80
2023/07/12 10:05:49;;;;;;;10.75;9.15;;;;;;;-141.97;29.40;47117.41;5107751;28;20671;-81
2023/07/12 10:08:18;;;;;;;14.77;8.68;;;;;;;-141.97;29.50;47140.47;5108366;28;20512;-80
2023/07/12 10:10:55;;;;;;;12.02;9.18;;;;;;;-141.97;29.53;47111.63;5107729;28;20191;-80
2023/07/12 10:13:41;;;;;;;11.18;9.15;;;;;;;-141.97;28.90;47121.25;5109342;28;20171;-80
2023/07/12 10:16:17;;;;;;;10.05;8.68;;;;;;;-141.97;28.99;47146.22;5110322;28;20248;-80
2023/07/12 10:18:44;;;;;;;10.13;8.73;;;;;;;-141.97;28.87;47134.69;5109635;28;20163;-80
2023/07/12 10:21:16;;;;;;;10.18;8.32;;;;;;;-141.97;28.53;47113.56;5108933;28;20221;-78
2023/07/12 10:23:47;;;;;;;10.80;8.52;;;;;;;-141.97;28.91;47144.31;5107800;28;20166;-79
2023/07/12 10:26:15;;;;;;;10.38;8.20;;;;;;;-141.97;29.18;47161.59;5107804;28;20184;-81
2023/07/12 10:28:45;;;;;;;9.25;8.27;;;;;;;-141.97;29.13;47175.06;5107703;28;20247;-81
2023/07/12 10:31:38;;;;;;;10.40;8.60;;;;;;;-141.97;29.10;47142.38;5108398;28;20670;-81
2023/07/12 10:34:16;;;;;;;9.77;8.32;;;;;;;-141.97;28.29;47127.00;5107805;28;20247;-80
2023/07/12 10:36:43;;;;;;;9.38;8.02;;;;;;;-141.97;28.34;47138.53;5107521;28;20171;-80
2023/07/12 10:39:09;;;;;;;10.27;8.43;;;;;;;-141.97;28.05;47109.72;5107382;28;20172;-79
2023/07/12 10:41:44;;;;;;;9.40;8.27;;;;;;;-141.97;27.94;47115.47;5140578;27;20225;-81
2023/07/12 10:44:19;;;;;;;10.10;8.48;;;;;;;-141.97;27.62;47096.25;5107438;28;20167;-81
2023/07/12 10:46:51;;;;;;;12.90;8.65;;;;;;;-141.97;27.34;47096.25;5107820;28;20181;-80
2023/07/12 10:49:20;;;;;;;10.40;8.23;;;;;;;-141.97;27.39;47098.19;5107654;28;20619;-81
2023/07/12 10:52:15;;;;;;;10.05;8.38;;;;;;;-141.97;26.84;47125.09;5107328;27;20194;-82
2023/07/12 10:55:36;;;;;;;9.40;8.13;;;;;;;-141.97;26.70;47109.72;5107527;28;20175;-80
2023/07/12 10:58:19;;;;;;;10.98;8.40;;;;;;;-141.97;27.02;47144.31;5084506;28;20175;-81
2023/07/12 11:01:03;;;;;;;9.23;8.30;;;;;;;-141.97;27.06;47107.78;5088078;28;20263;-81
2023/07/12 11:03:47;;;;;;;11.07;8.35;;;;;;;-141.97;27.71;47127.00;5078963;28;20320;-79
2023/07/12 11:06:26;;;;;;;12.10;8.65;;;;;;;-141.97;27.27;47123.16;5094753;28;20215;-81
2023/07/12 11:08:54;;;;;;;10.00;8.63;;;;;;;-141.97;27.00;47100.09;5097390;28;20177;-81
2023/07/12 11:11:19;;;;;;;14.13;8.90;;;;;;;-141.97;26.99;47105.88;5084644;28;20197;-80
2023/07/12 11:13:51;;;;;;;9.77;8.10;;;;;;;-141.97;27.15;47334.56;5078004;28;20211;-88
2023/07/12 11:16:19;;;;;;;10.52;8.60;;;;;;;-141.97;27.17;47136.63;5076714;28;20259;-89
2023/07/12 11:18:57;;;;;;;12.70;9.13;;;;;;;-141.97;27.05;47019.38;5073753;28;20215;-88
2023/07/12 11:21:45;;;;;;;11.55;8.57;;;;;;;-141.97;26.90;47113.56;5077031;28;20176;-88
2023/07/12 11:24:25;;;;;;;9.68;8.50;;;;;;;-141.97;26.61;47128.94;5075121;28;20178;-90
2023/07/12 11:26:55;;;;;;;14.77;9.02;;;;;;;-141.97;26.61;47092.41;5076079;28;20169;-89
2023/07/12 11:29:36;;;;;;;11.15;9.13;;;;;;;-141.97;26.62;47096.25;5076643;28;20169;-89
2023/07/12 11:32:23;;;;;;;14.45;8.85;;;;;;;-141.97;26.35;47103.94;5090846;28;20246;-89
2023/07/12 11:34:57;;;;;;;11.35;8.50;;;;;;;-141.97;26.65;47380.69;5134887;27;20364;-89
2023/07/12 11:37:30;;;;;;;11.43;9.52;;;;;;;-141.97;26.39;47132.78;5098602;28;20227;-90
2023/07/12 11:39:56;;;;;;;10.30;8.93;;;;;;;-141.97;25.95;47069.34;5117154;28;20173;-89
2023/07/12 11:42:27;;;;;;;11.35;8.90;;;;;;;-141.97;25.71;47050.13;5114855;28;20171;-89
2023/07/12 11:45:04;;;;;;;9.93;8.80;;;;;;;-141.97;25.46;47013.63;5098827;28;20165;-90
2023/07/12 11:47:30;;;;;;;11.27;9.18;;;;;;;-141.97;25.11;46986.72;5114900;28;20163;-89
2023/07/12 11:49:59;;;;;;;10.65;8.75;;;;;;;-141.97;25.31;47059.75;5098304;28;20163;-89
2023/07/12 11:52:26;;;;;;;11.25;9.20;;;;;;;-141.97;25.26;47344.19;5098255;28;20206;-89
2023/07/12 11:54:53;;;;;;;10.82;8.95;;;;;;;-141.97;24.66;46911.75;5113983;28;20167;-88
2023/07/12 11:57:20;;;;;;;12.82;9.27;;;;;;;-141.97;24.22;47071.28;5098963;28;20266;-88
2023/07/12 11:59:47;;;;;;;11.88;9.10;;;;;;;-141.97;25.14;46683.09;5098910;28;20221;-88
2023/07/12 12:02:19;;;;;;;11.77;9.00;;;;;;;-141.97;24.87;47192.34;5095831;28;20226;-88
2023/07/12 12:04:49;;;;;;;13.82;9.05;;;;;;;-141.97;24.21;46969.41;5098567;28;20180;-88
2023/07/12 12:07:37;;;;;;;10.15;9.00;;;;;;;-141.97;24.45;47011.69;5095638;28;20170;-87
2023/07/12 12:10:04;;;;;;;9.70;8.70;;;;;;;-141.97;24.87;47313.44;5147304;27;20197;-88
2023/07/12 12:12:32;;;;;;;11.60;8.63;;;;;;;-141.97;24.94;47015.53;5098587;28;20229;-90
2023/07/12 12:14:58;;;;;;;11.95;8.50;;;;;;;-141.97;24.98;47023.22;5096192;28;20179;-90
2023/07/12 12:17:32;;;;;;;11.85;8.52;;;;;;;-141.97;24.41;47007.84;5097298;28;20159;-90
2023/07/12 12:20:11;;;;;;;9.40;8.40;;;;;;;-141.97;24.11;46938.66;5098080;28;20167;-89
2023/07/12 12:22:41;;;;;;;11.07;8.63;;;;;;;-141.97;24.65;46979.03;5099246;28;20169;-89
2023/07/12 12:25:20;;;;;;;11.15;9.15;;;;;;;-141.97;25.25;47265.38;5114794;28;20178;-90
2023/07/12 12:27:48;;;;;;;11.57;9.00;;;;;;;-141.97;24.49;47238.47;5100563;28;20591;-89